Time;durP1;ratioP1;P1;durP2;ratioP2;P2;SDS_P1;SDS_P2;PMS_P1;PMS_P2;Temp;Humidity;BMP_temperature;BMP_pressure;BME280_temperature;BME280_humidity;BME280_pressure;Samples;Min_cycle;Max_cycle;Signal;HPM_P1;HPM_P2
2021/05/23 00:01:00;;;;;;;49.72;8.70;;;8.70;99.90;;;;;;4995090;28;20538;-81
2021/05/23 00:03:27;;;;;;;34.75;7.57;;;8.70;99.90;;;;;;4995172;28;20116;-79
2021/05/23 00:05:53;;;;;;;60.55;7.78;;;8.70;99.90;;;;;;4994616;28;20395;-79
2021/05/23 00:08:20;;;;;;;31.15;5.72;;;8.70;99.90;;;;;;4995017;28;20019;-79
2021/05/23 00:10:48;;;;;;;34.33;6.00;;;8.70;99.90;;;;;;4993791;28;20118;-80
2021/05/23 00:13:17;;;;;;;33.78;6.63;;;8.80;99.90;;;;;;4993734;28;20018;-80
2021/05/23 00:15:46;;;;;;;39.35;5.95;;;8.80;99.90;;;;;;4994412;28;20113;-80
2021/05/23 00:18:12;;;;;;;35.53;6.07;;;8.80;99.90;;;;;;4993741;28;20491;-80
2021/05/23 00:20:39;;;;;;;37.78;5.43;;;8.80;99.90;;;;;;4976932;28;20039;-80
2021/05/23 00:23:04;;;;;;;43.17;5.88;;;8.70;99.90;;;;;;4993945;28;20824;-80
2021/05/23 00:25:31;;;;;;;34.17;6.55;;;8.70;99.90;;;;;;4994092;28;20097;-79
2021/05/23 00:27:57;;;;;;;40.20;6.00;;;8.70;99.90;;;;;;4994777;28;20105;-80
2021/05/23 00:30:23;;;;;;;44.85;5.93;;;8.70;99.90;;;;;;4993388;28;20121;-79
2021/05/23 00:32:50;;;;;;;33.63;6.03;;;8.60;99.90;;;;;;4993448;28;20025;-79
2021/05/23 00:35:16;;;;;;;33.70;4.93;;;8.70;99.90;;;;;;4992811;28;20037;-81
2021/05/23 00:37:42;;;;;;;44.25;6.60;;;8.60;99.90;;;;;;4993290;28;20026;-81
2021/05/23 00:40:08;;;;;;;39.60;5.38;;;8.70;99.90;;;;;;4994496;28;20026;-80
2021/05/23 00:42:34;;;;;;;44.03;5.63;;;8.70;99.90;;;;;;4994452;28;20069;-79
2021/05/23 00:45:00;;;;;;;31.23;5.15;;;8.70;99.90;;;;;;4993836;28;20066;-80
2021/05/23 00:47:26;;;;;;;35.17;5.32;;;8.80;99.90;;;;;;4993157;28;20030;-81
2021/05/23 00:49:52;;;;;;;34.35;4.97;;;8.70;99.90;;;;;;4994014;28;20034;-79
2021/05/23 00:52:17;;;;;;;39.28;6.38;;;8.80;99.90;;;;;;4976769;28;20029;-79
2021/05/23 00:54:43;;;;;;;34.30;5.70;;;8.80;99.90;;;;;;4976669;28;20018;-80
2021/05/23 00:57:09;;;;;;;36.35;6.97;;;8.80;99.90;;;;;;4976417;28;20030;-81
2021/05/23 00:59:34;;;;;;;42.53;5.40;;;8.80;99.90;;;;;;4994060;28;20117;-80
2021/05/23 01:02:00;;;;;;;33.78;5.50;;;8.70;99.90;;;;;;4992912;28;20028;-80
2021/05/23 01:04:26;;;;;;;36.15;6.07;;;8.90;99.90;;;;;;4992208;28;20030;-80
2021/05/23 01:06:51;;;;;;;37.60;7.15;;;8.90;99.90;;;;;;4994012;28;20022;-79
2021/05/23 01:09:17;;;;;;;26.75;4.85;;;8.90;99.90;;;;;;4976491;28;20461;-80
2021/05/23 01:11:43;;;;;;;21.42;4.05;;;8.90;99.90;;;;;;4993959;28;20018;-80
2021/05/23 01:14:11;;;;;;;32.40;4.13;;;8.80;99.90;;;;;;4992600;28;20061;-80
2021/05/23 01:16:50;;;;;;;36.75;5.22;;;8.80;99.90;;;;;;4991989;28;20494;-80
2021/05/23 01:19:32;;;;;;;25.38;4.07;;;8.70;99.90;;;;;;4992305;28;20088;-80
2021/05/23 01:22:16;;;;;;;24.60;3.80;;;8.70;99.90;;;;;;4993746;28;20026;-80
2021/05/23 01:25:00;;;;;;;34.63;4.50;;;8.70;99.90;;;;;;4993450;28;20034;-80
2021/05/23 01:27:35;;;;;;;20.83;3.60;;;8.70;99.90;;;;;;4973011;28;20035;-80
2021/05/23 01:30:07;;;;;;;26.67;3.38;;;8.70;99.90;;;;;;4974138;28;20065;-80
2021/05/23 01:32:35;;;;;;;13.85;3.00;;;8.60;99.90;;;;;;4972669;28;20074;-81
2021/05/23 01:35:07;;;;;;;27.83;5.65;;;8.60;99.90;;;;;;4963587;28;20117;-81
2021/05/23 01:37:32;;;;;;;28.88;3.70;;;8.70;99.90;;;;;;4993389;28;20084;-80
2021/05/23 01:39:58;;;;;;;24.38;3.58;;;8.80;99.90;;;;;;4993417;28;20101;-82
2021/05/23 01:42:24;;;;;;;25.90;3.13;;;8.80;99.90;;;;;;4992112;28;20030;-80
2021/05/23 01:44:50;;;;;;;17.58;2.85;;;8.80;99.90;;;;;;4991535;28;20038;-81
2021/05/23 01:47:17;;;;;;;11.55;1.70;;;8.70;99.90;;;;;;4991883;28;20173;-80
2021/05/23 01:49:43;;;;;;;7.65;1.85;;;8.70;99.90;;;;;;4991591;28;20061;-79
2021/05/23 01:52:08;;;;;;;9.75;2.17;;;8.80;99.90;;;;;;4992847;28;20037;-80
2021/05/23 01:54:35;;;;;;;12.32;2.10;;;8.80;99.90;;;;;;4975388;28;20022;-80
2021/05/23 01:57:00;;;;;;;23.27;2.75;;;8.80;99.90;;;;;;4991564;28;20026;-80
2021/05/23 01:59:26;;;;;;;11.77;1.92;;;8.70;99.90;;;;;;4993057;28;20080;-80
2021/05/23 02:01:51;;;;;;;16.33;2.22;;;8.80;99.90;;;;;;4975118;28;20034;-81
2021/05/23 02:04:17;;;;;;;10.57;2.20;;;8.70;99.90;;;;;;4991461;28;20037;-80
2021/05/23 02:06:42;;;;;;;14.50;3.35;;;8.70;99.90;;;;;;4992440;28;20089;-81
2021/05/23 02:09:08;;;;;;;13.95;2.25;;;8.60;99.90;;;;;;4992861;28;20033;-81
2021/05/23 02:11:34;;;;;;;11.65;2.33;;;8.60;99.90;;;;;;4992873;28;20058;-80
2021/05/23 02:13:59;;;;;;;17.30;3.10;;;8.60;99.90;;;;;;4975196;28;20037;-81
2021/05/23 02:16:25;;;;;;;22.02;2.88;;;8.60;99.90;;;;;;4992295;28;20101;-81
2021/05/23 02:18:51;;;;;;;13.68;2.38;;;8.60;99.90;;;;;;4992759;28;20149;-80
2021/05/23 02:21:16;;;;;;;15.02;2.42;;;8.60;99.90;;;;;;4992504;28;20037;-83
2021/05/23 02:23:53;;;;;;;10.23;2.28;;;8.50;99.90;;;;;;4992608;28;20583;-83
2021/05/23 02:26:19;;;;;;;13.95;2.17;;;8.60;99.90;;;;;;4992355;28;20517;-81
2021/05/23 02:28:45;;;;;;;9.95;2.70;;;8.70;99.90;;;;;;4991174;28;20038;-80
2021/05/23 02:31:10;;;;;;;15.40;2.63;;;8.70;99.90;;;;;;4991322;28;20031;-81
2021/05/23 02:33:36;;;;;;;19.15;3.13;;;8.60;99.90;;;;;;4991280;28;20168;-81
2021/05/23 02:36:02;;;;;;;19.75;3.15;;;8.70;99.90;;;;;;4992027;28;20031;-81
2021/05/23 02:38:27;;;;;;;19.77;3.47;;;8.60;99.90;;;;;;4992552;28;20026;-81
2021/05/23 02:40:54;;;;;;;26.60;2.67;;;8.60;99.90;;;;;;4992463;28;20505;-82
2021/05/23 02:43:21;;;;;;;15.48;2.58;;;8.60;99.90;;;;;;4992407;28;20414;-82
2021/05/23 02:45:47;;;;;;;18.38;2.85;;;8.60;99.90;;;;;;4991359;28;20034;-82
2021/05/23 02:48:13;;;;;;;20.80;2.75;;;8.50;99.90;;;;;;4991136;28;20069;-81
2021/05/23 02:50:44;;;;;;;11.30;2.45;;;8.60;99.90;;;;;;4992136;28;20480;-82
2021/05/23 02:53:11;;;;;;;15.55;3.20;;;8.60;99.90;;;;;;4992389;28;20031;-81
2021/05/23 02:55:39;;;;;;;16.92;3.17;;;8.60;99.90;;;;;;4991878;28;20026;-82
2021/05/23 02:58:06;;;;;;;28.77;3.33;;;8.60;99.90;;;;;;4991043;28;20113;-81
2021/05/23 03:00:32;;;;;;;15.80;2.40;;;8.60;99.90;;;;;;4974863;28;20113;-82
2021/05/23 03:02:58;;;;;;;23.92;3.45;;;8.60;99.90;;;;;;4991069;28;20472;-82
2021/05/23 03:05:24;;;;;;;17.63;3.63;;;8.60;99.90;;;;;;4991799;28;20081;-81
2021/05/23 03:07:54;;;;;;;21.15;2.97;;;8.60;99.90;;;;;;4991032;28;20525;-81
2021/05/23 03:10:22;;;;;;;15.82;2.47;;;8.60;99.90;;;;;;4990944;28;20046;-81
2021/05/23 03:12:49;;;;;;;17.75;2.63;;;8.70;99.90;;;;;;4992192;28;20121;-82
2021/05/23 03:15:16;;;;;;;16.02;2.38;;;8.60;99.90;;;;;;4991702;28;20018;-81
2021/05/23 03:17:42;;;;;;;14.40;2.85;;;8.60;99.90;;;;;;4991802;28;20061;-82
2021/05/23 03:20:09;;;;;;;12.32;2.35;;;8.50;99.90;;;;;;4974481;28;20138;-81
2021/05/23 03:22:36;;;;;;;17.00;2.85;;;8.60;99.90;;;;;;4992067;28;20135;-81
2021/05/23 03:25:03;;;;;;;15.07;2.60;;;8.60;99.90;;;;;;4991310;28;20491;-81
2021/05/23 03:27:28;;;;;;;12.07;3.00;;;8.60;99.90;;;;;;4974724;28;20041;-82
2021/05/23 03:29:54;;;;;;;17.52;2.55;;;8.60;99.90;;;;;;4991710;28;20499;-82
2021/05/23 03:32:19;;;;;;;12.55;2.20;;;8.60;99.90;;;;;;4974651;28;20101;-82
2021/05/23 03:34:45;;;;;;;15.07;2.83;;;8.50;99.90;;;;;;4991535;28;20038;-81
2021/05/23 03:37:10;;;;;;;20.13;4.25;;;8.50;99.90;;;;;;4991994;28;20018;-81
2021/05/23 03:39:36;;;;;;;17.83;3.33;;;8.50;99.90;;;;;;4990939;28;20034;-82
2021/05/23 03:42:01;;;;;;;20.17;2.88;;;8.50;99.90;;;;;;4992026;28;20037;-82
2021/05/23 03:44:27;;;;;;;24.02;3.72;;;8.60;99.90;;;;;;4990352;28;20128;-81
2021/05/23 03:46:52;;;;;;;18.42;2.90;;;8.60;99.90;;;;;;4991715;28;20499;-81
2021/05/23 03:49:18;;;;;;;24.42;3.65;;;8.60;99.90;;;;;;4991547;28;20455;-82
2021/05/23 03:51:45;;;;;;;25.27;3.38;;;8.50;99.90;;;;;;4974282;28;20084;-81
2021/05/23 03:54:11;;;;;;;13.85;3.45;;;8.60;99.90;;;;;;4974153;28;20026;-82
2021/05/23 03:56:36;;;;;;;19.98;3.63;;;8.60;99.90;;;;;;4991910;28;20422;-82
2021/05/23 03:59:03;;;;;;;21.92;4.60;;;8.60;99.90;;;;;;4994132;28;20030;-82
2021/05/23 04:01:29;;;;;;;33.83;4.03;;;8.60;99.90;;;;;;4993965;28;20117;-81
2021/05/23 04:03:58;;;;;;;19.15;4.10;;;8.60;99.90;;;;;;4994981;28;20065;-82
2021/05/23 04:06:23;;;;;;;22.50;3.65;;;8.60;99.90;;;;;;4993627;28;20041;-81
2021/05/23 04:08:49;;;;;;;33.42;4.47;;;8.60;99.90;;;;;;4977583;28;20030;-82
2021/05/23 04:11:18;;;;;;;30.35;4.30;;;8.60;99.90;;;;;;4995164;28;20755;-83
2021/05/23 04:13:45;;;;;;;16.73;3.35;;;8.50;99.90;;;;;;4993643;28;20521;-82
2021/05/23 04:16:11;;;;;;;29.67;4.15;;;8.70;99.90;;;;;;4977132;28;20073;-81
2021/05/23 04:18:37;;;;;;;26.27;3.65;;;8.60;99.90;;;;;;4995005;28;20081;-81
2021/05/23 04:21:04;;;;;;;35.75;3.85;;;8.60;99.90;;;;;;4993446;28;20054;-82
2021/05/23 04:23:30;;;;;;;25.42;3.42;;;8.60;99.90;;;;;;4977250;28;20088;-82
2021/05/23 04:25:55;;;;;;;20.88;3.35;;;8.70;99.90;;;;;;4994320;28;20109;-82
2021/05/23 04:28:21;;;;;;;22.55;3.28;;;8.60;99.90;;;;;;4993510;28;20033;-82
2021/05/23 04:30:47;;;;;;;27.83;4.22;;;8.70;99.90;;;;;;4993418;28;20117;-81
2021/05/23 04:33:12;;;;;;;35.22;4.10;;;8.70;99.90;;;;;;4994704;28;20018;-81
2021/05/23 04:35:38;;;;;;;23.92;3.85;;;8.80;99.90;;;;;;4994163;28;20023;-81
2021/05/23 04:38:05;;;;;;;26.75;4.40;;;8.60;99.90;;;;;;4977075;28;20498;-82
2021/05/23 04:40:31;;;;;;;28.77;3.53;;;8.70;99.90;;;;;;4976606;28;20399;-82
2021/05/23 04:42:57;;;;;;;26.77;4.28;;;8.70;99.90;;;;;;4993284;28;20027;-82
2021/05/23 04:45:23;;;;;;;29.25;4.35;;;8.80;99.90;;;;;;4992496;28;20081;-82
2021/05/23 04:47:49;;;;;;;30.52;4.50;;;8.80;99.90;;;;;;4994398;28;20033;-81
2021/05/23 04:50:15;;;;;;;28.75;3.65;;;8.80;99.90;;;;;;4992833;28;20037;-82
2021/05/23 04:52:40;;;;;;;27.42;4.47;;;8.90;99.90;;;;;;4976790;28;20026;-81
2021/05/23 04:55:07;;;;;;;39.45;4.68;;;9.00;99.90;;;;;;4992599;28;20018;-82
2021/05/23 04:57:33;;;;;;;20.00;3.15;;;8.90;99.90;;;;;;4993048;28;20057;-81
2021/05/23 04:59:59;;;;;;;32.45;3.85;;;8.90;99.90;;;;;;4992907;28;20065;-82
2021/05/23 05:02:24;;;;;;;29.20;4.20;;;8.90;99.90;;;;;;4976749;28;20081;-81
2021/05/23 05:04:50;;;;;;;24.67;3.78;;;8.90;99.90;;;;;;4993644;28;20044;-81
2021/05/23 05:07:16;;;;;;;29.55;3.88;;;8.90;99.90;;;;;;4993546;28;20033;-82
2021/05/23 05:09:41;;;;;;;26.10;3.72;;;9.00;99.90;;;;;;4993566;28;20053;-80
2021/05/23 05:12:07;;;;;;;45.97;4.72;;;9.20;99.90;;;;;;4976432;28;20095;-81
2021/05/23 05:14:34;;;;;;;38.38;11.60;;;9.20;99.90;;;;;;4975998;28;20037;-81
2021/05/23 05:16:59;;;;;;;34.80;8.98;;;9.10;99.90;;;;;;4976362;28;20510;-81
2021/05/23 05:19:25;;;;;;;34.30;6.60;;;9.10;99.90;;;;;;4992286;28;20030;-82
2021/05/23 05:21:51;;;;;;;33.15;7.57;;;9.00;99.90;;;;;;4992478;28;20081;-82
2021/05/23 05:24:17;;;;;;;28.27;5.55;;;9.10;99.90;;;;;;4993564;28;20033;-82
2021/05/23 05:26:43;;;;;;;28.67;6.90;;;9.10;99.90;;;;;;4993352;28;20058;-82
2021/05/23 05:29:08;;;;;;;22.75;3.95;;;9.10;99.90;;;;;;4975829;28;20038;-82
2021/05/23 05:31:34;;;;;;;25.20;3.80;;;9.10;99.90;;;;;;4976212;28;20030;-83
2021/05/23 05:34:00;;;;;;;36.03;5.82;;;9.00;99.90;;;;;;4975960;28;20030;-82
2021/05/23 05:36:26;;;;;;;28.02;4.47;;;9.00;99.90;;;;;;4975595;28;20372;-81
2021/05/23 05:38:52;;;;;;;24.80;3.70;;;9.00;99.90;;;;;;4992228;28;20053;-83
2021/05/23 05:41:19;;;;;;;20.88;3.72;;;9.10;99.90;;;;;;4993412;28;20030;-82
2021/05/23 05:43:46;;;;;;;19.15;3.00;;;9.20;99.90;;;;;;4993235;28;20105;-82
2021/05/23 05:46:11;;;;;;;22.60;3.75;;;9.10;99.90;;;;;;4975453;28;20035;-83
2021/05/23 05:48:37;;;;;;;22.85;5.45;;;9.20;99.90;;;;;;4993139;28;20033;-83
2021/05/23 05:51:03;;;;;;;25.75;3.72;;;9.40;99.90;;;;;;4975457;28;20081;-82
2021/05/23 05:53:28;;;;;;;21.67;3.33;;;9.50;99.90;;;;;;4991946;28;20394;-82
2021/05/23 05:55:54;;;;;;;26.60;5.32;;;9.50;99.90;;;;;;4991182;28;20026;-82
2021/05/23 05:58:19;;;;;;;19.00;2.78;;;9.60;99.90;;;;;;4993130;28;20041;-81
2021/05/23 06:00:45;;;;;;;14.18;3.35;;;9.70;99.90;;;;;;4991383;28;20422;-81
2021/05/23 06:03:11;;;;;;;26.30;3.53;;;9.60;99.90;;;;;;4992638;28;20394;-82
2021/05/23 06:05:36;;;;;;;23.98;3.13;;;9.70;99.90;;;;;;4992103;28;20505;-82
2021/05/23 06:08:02;;;;;;;19.80;3.45;;;9.90;99.90;;;;;;4975425;28;20100;-83
2021/05/23 06:10:28;;;;;;;22.55;3.85;;;10.00;99.90;;;;;;4975316;28;20034;-82
2021/05/23 06:12:53;;;;;;;22.33;4.10;;;10.10;99.90;;;;;;4991512;28;20026;-83
2021/05/23 06:15:19;;;;;;;30.55;2.75;;;9.90;99.90;;;;;;4990907;28;20023;-83
2021/05/23 06:17:44;;;;;;;21.60;3.55;;;9.90;99.90;;;;;;4992885;28;20026;-82
2021/05/23 06:20:11;;;;;;;28.55;2.92;;;9.90;99.90;;;;;;4974354;28;20662;-83
2021/05/23 06:22:38;;;;;;;17.95;3.25;;;10.00;99.90;;;;;;4992718;28;20049;-82
2021/05/23 06:25:05;;;;;;;24.25;4.50;;;10.10;99.90;;;;;;4990781;28;20026;-81
2021/05/23 06:27:31;;;;;;;25.38;3.92;;;10.20;99.90;;;;;;4992479;28;20037;-83
2021/05/23 06:29:56;;;;;;;20.52;3.80;;;10.20;99.90;;;;;;4975021;28;20121;-81
2021/05/23 06:32:22;;;;;;;18.92;3.75;;;10.20;99.90;;;;;;4991395;28;20155;-82
2021/05/23 06:34:47;;;;;;;39.33;5.25;;;10.30;99.90;;;;;;4974481;28;20054;-83
2021/05/23 06:37:13;;;;;;;22.13;3.13;;;10.00;99.90;;;;;;4992408;28;20026;-81
2021/05/23 06:39:39;;;;;;;19.40;3.55;;;9.80;99.90;;;;;;4971613;28;20423;-82
2021/05/23 06:42:05;;;;;;;28.40;4.28;;;9.90;99.90;;;;;;4988444;28;20711;-83
2021/05/23 06:44:31;;;;;;;19.52;3.75;;;10.00;99.90;;;;;;4987656;28;20117;-82
2021/05/23 06:46:56;;;;;;;18.83;3.28;;;10.10;99.90;;;;;;4995438;28;20847;-82
2021/05/23 06:49:22;;;;;;;21.77;3.83;;;10.20;99.90;;;;;;4987487;28;20026;-84
2021/05/23 06:51:47;;;;;;;27.90;3.38;;;10.00;99.90;;;;;;4988023;28;20403;-82
2021/05/23 06:54:13;;;;;;;18.23;4.10;;;10.20;99.90;;;;;;4987397;28;20026;-82
2021/05/23 06:56:39;;;;;;;29.75;5.22;;;10.30;99.90;;;;;;4987785;28;20058;-82
2021/05/23 06:59:05;;;;;;;23.33;5.22;;;10.30;99.90;;;;;;4988570;28;20034;-83
2021/05/23 07:01:31;;;;;;;24.20;3.95;;;10.00;99.90;;;;;;4987373;28;20482;-81
2021/05/23 07:03:58;;;;;;;12.32;2.40;;;9.90;99.90;;;;;;4995693;28;20127;-80
2021/05/23 07:06:23;;;;;;;26.33;4.85;;;10.00;99.90;;;;;;4988212;28;20059;-82
2021/05/23 07:08:49;;;;;;;18.13;2.95;;;10.30;99.90;;;;;;4988626;28;20478;-81
2021/05/23 07:11:14;;;;;;;15.10;3.40;;;10.50;99.90;;;;;;4989040;28;20022;-82
2021/05/23 07:13:40;;;;;;;21.92;2.88;;;10.40;99.90;;;;;;4994497;28;20118;-84
2021/05/23 07:16:05;;;;;;;16.38;2.95;;;10.20;99.90;;;;;;4992255;28;20094;-82
2021/05/23 07:18:31;;;;;;;19.98;2.83;;;10.10;99.90;;;;;;4989069;28;20391;-83
2021/05/23 07:20:59;;;;;;;12.85;2.67;;;10.20;99.90;;;;;;4990866;28;20081;-82
2021/05/23 07:23:25;;;;;;;16.13;3.50;;;10.40;99.90;;;;;;4988834;28;20034;-84
2021/05/23 07:25:51;;;;;;;20.67;3.60;;;10.40;99.90;;;;;;4988755;28;20026;-83
2021/05/23 07:28:17;;;;;;;20.73;2.70;;;10.20;99.90;;;;;;4990858;28;20034;-83
2021/05/23 07:30:42;;;;;;;21.17;3.08;;;10.10;99.90;;;;;;4975044;28;20031;-82
2021/05/23 07:33:08;;;;;;;18.20;3.25;;;10.10;99.90;;;;;;4978272;28;20022;-82
2021/05/23 07:35:34;;;;;;;19.60;3.10;;;10.30;99.90;;;;;;4995173;28;20505;-82
2021/05/23 07:38:00;;;;;;;11.38;2.10;;;10.60;99.90;;;;;;4993890;28;20080;-82
2021/05/23 07:40:25;;;;;;;27.92;4.93;;;10.80;99.90;;;;;;4995626;28;20062;-83
2021/05/23 07:42:51;;;;;;;19.52;3.40;;;11.00;99.90;;;;;;4993986;28;20483;-84
2021/05/23 07:45:17;;;;;;;19.35;2.97;;;11.00;99.90;;;;;;4994050;28;20042;-83
2021/05/23 07:47:43;;;;;;;18.45;2.50;;;10.80;99.90;;;;;;4977882;28;20023;-82
2021/05/23 07:50:09;;;;;;;15.68;2.58;;;11.00;99.90;;;;;;4994694;28;20027;-85
2021/05/23 07:52:35;;;;;;;24.88;3.20;;;11.10;99.90;;;;;;4995283;28;20034;-84
2021/05/23 07:55:01;;;;;;;26.33;4.07;;;11.30;99.90;;;;;;4993899;28;20506;-83
2021/05/23 07:57:27;;;;;;;16.30;2.80;;;11.60;99.90;;;;;;4994111;28;20106;-83
2021/05/23 07:59:53;;;;;;;19.42;3.17;;;11.10;99.90;;;;;;4977584;28;20042;-83
2021/05/23 08:02:18;;;;;;;17.77;2.60;;;11.10;99.90;;;;;;4995173;28;20390;-83
2021/05/23 08:04:45;;;;;;;15.10;2.47;;;11.10;99.90;;;;;;4977228;28;20034;-82
2021/05/23 08:07:10;;;;;;;16.02;3.10;;;11.20;99.90;;;;;;4993846;28;20026;-82
2021/05/23 08:09:36;;;;;;;12.55;3.40;;;11.40;99.90;;;;;;4993564;28;20037;-84
2021/05/23 08:12:02;;;;;;;28.42;3.42;;;11.40;99.90;;;;;;4977518;28;20501;-84
2021/05/23 08:14:27;;;;;;;24.10;6.22;;;11.40;99.90;;;;;;4977288;28;20027;-81
2021/05/23 08:16:53;;;;;;;35.40;7.03;;;11.10;99.90;;;;;;4994896;28;20470;-79
2021/05/23 08:19:19;;;;;;;20.45;4.30;;;11.30;99.90;;;;;;4994596;28;20031;-80
2021/05/23 08:21:45;;;;;;;12.50;3.72;;;11.40;99.90;;;;;;4993665;28;20088;-81
2021/05/23 08:24:12;;;;;;;32.30;8.85;;;11.30;99.90;;;;;;4993440;28;20026;-82
2021/05/23 08:26:37;;;;;;;19.83;3.25;;;11.20;99.90;;;;;;4994624;28;20522;-80
2021/05/23 08:29:04;;;;;;;15.90;2.42;;;10.80;99.90;;;;;;4994711;28;20120;-81
2021/05/23 08:31:29;;;;;;;18.10;2.90;;;10.70;99.90;;;;;;4994453;28;20022;-82
2021/05/23 08:33:55;;;;;;;28.10;3.22;;;10.80;99.90;;;;;;4994466;28;20464;-81
2021/05/23 08:36:21;;;;;;;21.45;4.25;;;10.90;99.90;;;;;;4994302;28;20062;-79
2021/05/23 08:38:47;;;;;;;20.48;3.80;;;11.30;99.90;;;;;;4994654;28;20069;-82
2021/05/23 08:41:19;;;;;;;41.03;10.32;;;11.90;99.90;;;;;;4992934;28;20587;-82
2021/05/23 08:43:46;;;;;;;24.42;7.28;;;12.20;99.90;;;;;;4992615;28;20033;-81
2021/05/23 08:46:13;;;;;;;27.45;8.57;;;11.70;99.90;;;;;;4994559;28;20052;-83
2021/05/23 08:48:40;;;;;;;25.60;7.85;;;11.30;99.90;;;;;;4994328;28;20045;-81
2021/05/23 08:51:07;;;;;;;27.23;8.77;;;11.30;99.90;;;;;;4994323;28;20501;-81
2021/05/23 08:53:33;;;;;;;23.02;3.60;;;11.00;99.90;;;;;;4993200;28;20026;-80
2021/05/23 08:55:59;;;;;;;27.33;5.25;;;11.00;99.90;;;;;;4992722;28;20096;-79
2021/05/23 08:58:25;;;;;;;12.43;3.65;;;10.80;99.90;;;;;;4976712;28;20026;-80
2021/05/23 09:00:50;;;;;;;26.83;8.40;;;10.70;99.90;;;;;;4994182;28;20499;-79
2021/05/23 09:03:16;;;;;;;18.48;2.13;;;10.80;99.90;;;;;;4976612;28;20033;-82
2021/05/23 09:05:50;;;;;;;19.17;4.35;;;11.20;99.90;;;;;;4993562;28;20026;-80
2021/05/23 09:08:19;;;;;;;27.52;7.05;;;11.80;99.90;;;;;;4992897;28;20399;-82
2021/05/23 09:10:46;;;;;;;17.85;2.95;;;12.00;99.90;;;;;;4992058;28;20080;-80
2021/05/23 09:13:13;;;;;;;20.85;4.05;;;11.90;99.90;;;;;;4993808;28;20014;-80
2021/05/23 09:15:39;;;;;;;14.82;4.05;;;11.70;99.90;;;;;;4993693;28;20049;-81
2021/05/23 09:18:09;;;;;;;33.70;6.07;;;11.20;99.90;;;;;;4993928;28;20023;-79
2021/05/23 09:20:40;;;;;;;20.65;6.32;;;11.30;99.90;;;;;;4982071;28;20033;-80
2021/05/23 09:23:12;;;;;;;18.70;3.08;;;11.90;99.90;;;;;;4989271;28;20036;-80
2021/05/23 09:25:40;;;;;;;11.60;2.70;;;12.30;99.90;;;;;;4994700;28;20577;-80
2021/05/23 09:28:07;;;;;;;16.80;3.00;;;11.90;99.90;;;;;;5003824;28;20062;-80
2021/05/23 09:30:35;;;;;;;15.48;2.25;;;12.10;99.90;;;;;;4988326;28;20069;-82
2021/05/23 09:33:01;;;;;;;12.85;2.05;;;12.40;99.90;;;;;;5004093;28;20125;-81
2021/05/23 09:35:29;;;;;;;19.08;2.33;;;12.30;99.90;;;;;;4988828;28;20121;-80
2021/05/23 09:38:04;;;;;;;22.52;3.30;;;12.60;99.90;;;;;;4990900;28;20530;-80
2021/05/23 09:40:36;;;;;;;11.30;1.67;;;12.30;99.90;;;;;;4989016;28;20044;-80
2021/05/23 09:43:03;;;;;;;17.77;2.25;;;12.30;99.90;;;;;;4989185;28;20085;-83
2021/05/23 09:45:44;;;;;;;14.70;2.50;;;12.30;99.90;;;;;;4994168;28;20746;-82
2021/05/23 09:48:20;;;;;;;18.48;4.55;;;11.80;99.90;;;;;;4988983;28;20026;-81
2021/05/23 09:50:48;;;;;;;19.42;4.25;;;11.80;99.90;;;;;;4988318;28;20096;-82
2021/05/23 09:53:24;;;;;;;15.00;2.53;;;12.10;99.90;;;;;;4994012;28;20073;-82
2021/05/23 09:56:01;;;;;;;14.70;2.53;;;12.60;99.90;;;;;;4988717;28;20165;-84
2021/05/23 09:58:30;;;;;;;12.50;2.47;;;12.50;99.90;;;;;;4988662;28;20505;-82
2021/05/23 10:00:56;;;;;;;12.63;2.60;;;12.30;99.90;;;;;;4994846;28;20030;-84
2021/05/23 10:03:24;;;;;;;14.43;2.10;;;12.40;99.90;;;;;;4989489;28;20026;-83
2021/05/23 10:05:50;;;;;;;13.82;2.15;;;12.90;99.90;;;;;;4996219;28;20062;-82
2021/05/23 10:08:16;;;;;;;21.25;2.65;;;12.90;99.90;;;;;;4993119;28;20440;-81
2021/05/23 10:10:42;;;;;;;10.88;2.50;;;12.70;99.90;;;;;;4988135;28;20486;-83
2021/05/23 10:13:07;;;;;;;16.48;2.10;;;12.70;99.90;;;;;;4997612;28;20019;-85
2021/05/23 10:15:33;;;;;;;7.10;1.40;;;12.90;99.90;;;;;;4988593;28;20117;-87
2021/05/23 10:17:59;;;;;;;12.32;1.55;;;12.90;99.90;;;;;;4989105;28;20028;-85
2021/05/23 10:20:28;;;;;;;10.18;1.70;;;12.60;99.90;;;;;;4988772;28;20026;-87
2021/05/23 10:22:59;;;;;;;15.20;2.28;;;12.60;99.90;;;;;;4989196;28;20031;-88
2021/05/23 10:25:26;;;;;;;13.68;2.38;;;13.00;99.90;;;;;;4998282;28;20030;-86
2021/05/23 10:27:54;;;;;;;13.10;1.77;;;12.90;99.90;;;;;;4990011;28;20538;-88
2021/05/23 10:30:20;;;;;;;14.52;1.95;;;12.40;99.90;;;;;;4992798;28;20446;-89
2021/05/23 10:32:46;;;;;;;11.68;2.20;;;12.30;99.90;;;;;;4989704;28;20030;-82
2021/05/23 10:35:32;;;;;;;16.95;2.15;;;12.60;99.90;;;;;;4989684;28;20565;-86
2021/05/23 10:38:09;;;;;;;18.70;3.08;;;12.70;99.90;;;;;;4989779;28;20025;-83
2021/05/23 10:40:37;;;;;;;7.90;1.50;;;12.30;99.90;;;;;;4992545;28;20117;-83
2021/05/23 10:43:03;;;;;;;8.60;1.60;;;12.20;99.90;;;;;;4989501;28;20076;-83
2021/05/23 10:45:35;;;;;;;16.27;1.80;;;12.20;99.90;;;;;;4988019;28;20038;-80
2021/05/23 10:48:19;;;;;;;9.40;2.25;;;12.30;99.90;;;;;;4989496;28;20113;-83
2021/05/23 10:50:47;;;;;;;16.05;2.28;;;12.70;99.90;;;;;;4987417;28;20124;-83
2021/05/23 10:53:14;;;;;;;18.55;3.20;;;12.40;99.90;;;;;;4996066;28;20061;-82
2021/05/23 10:55:55;;;;;;;17.42;2.83;;;12.90;99.90;;;;;;4987657;28;20101;-83
2021/05/23 10:58:28;;;;;;;15.82;2.35;;;12.90;99.90;;;;;;4991576;28;20038;-89
2021/05/23 11:00:56;;;;;;;10.80;1.73;;;12.70;99.90;;;;;;4994471;28;20038;-88
2021/05/23 11:03:25;;;;;;;16.60;2.47;;;12.80;99.90;;;;;;4995892;28;20618;-88
2021/05/23 11:06:05;;;;;;;11.38;1.83;;;13.00;99.90;;;;;;4990902;28;20034;-90
2021/05/23 11:08:32;;;;;;;15.35;2.40;;;13.10;99.90;;;;;;5007801;28;20026;-91
2021/05/23 11:10:59;;;;;;;17.77;2.13;;;13.20;99.90;;;;;;5004981;28;20116;-85
2021/05/23 11:13:33;;;;;;;9.65;1.98;;;13.10;99.90;;;;;;4993386;28;20077;-88
2021/05/23 11:16:17;;;;;;;15.55;2.25;;;13.60;99.90;;;;;;4997156;28;20084;-86
2021/05/23 11:18:46;;;;;;;12.02;1.80;;;13.60;99.90;;;;;;4998818;28;20399;-88
2021/05/23 11:21:13;;;;;;;12.13;2.22;;;13.80;99.90;;;;;;4994160;28;20113;-89
2021/05/23 11:23:53;;;;;;;16.40;1.80;;;14.00;99.90;;;;;;4998752;28;20376;-86
2021/05/23 11:26:22;;;;;;;9.82;1.80;;;14.50;99.90;;;;;;4993368;28;20029;-86
2021/05/23 11:28:54;;;;;;;9.55;1.63;;;14.50;99.90;;;;;;4993429;28;20054;-89
2021/05/23 11:31:37;;;;;;;12.63;1.45;;;14.50;99.90;;;;;;4999154;28;20030;-87
2021/05/23 11:34:05;;;;;;;11.93;2.30;;;14.20;99.90;;;;;;4992801;28;20062;-86
2021/05/23 11:36:35;;;;;;;14.05;2.35;;;14.10;99.90;;;;;;5001918;28;20046;-88
2021/05/23 11:39:05;;;;;;;18.27;2.60;;;14.40;99.90;;;;;;4997799;28;20042;-87
2021/05/23 11:41:38;;;;;;;8.50;1.40;;;14.30;99.90;;;;;;4992203;28;20119;-88
2021/05/23 11:44:05;;;;;;;15.03;2.20;;;14.30;99.90;;;;;;5002408;28;20026;-88
2021/05/23 11:46:31;;;;;;;14.95;2.50;;;14.30;99.90;;;;;;4993113;28;20509;-88
2021/05/23 11:48:57;;;;;;;13.93;1.65;;;14.40;99.90;;;;;;5007703;28;20038;-87
2021/05/23 11:51:34;;;;;;;4.68;0.88;;;14.40;99.90;;;;;;4993752;28;20039;-86
2021/05/23 11:54:02;;;;;;;5.65;1.67;;;14.60;99.90;;;;;;5006343;28;20109;-85
2021/05/23 11:56:30;;;;;;;5.07;1.23;;;14.40;99.90;;;;;;4992694;28;20491;-85
2021/05/23 11:58:57;;;;;;;9.07;0.93;;;14.70;99.90;;;;;;5006615;28;20101;-88
2021/05/23 12:01:32;;;;;;;7.88;1.38;;;15.10;99.90;;;;;;5005853;28;20027;-85
2021/05/23 12:04:13;;;;;;;5.40;1.40;;;15.20;99.90;;;;;;5002323;28;20081;-86
2021/05/23 12:06:44;;;;;;;2.72;1.02;;;14.90;99.90;;;;;;4992271;28;20018;-85
2021/05/23 12:09:16;;;;;;;9.95;2.45;;;15.00;99.90;;;;;;4992702;28;20441;-85
2021/05/23 12:11:55;;;;;;;9.47;1.50;;;15.30;99.90;;;;;;5000602;28;20035;-85
2021/05/23 12:14:24;;;;;;;3.30;1.25;;;15.00;99.90;;;;;;5001912;28;20266;-84
2021/05/23 12:17:05;;;;;;;10.05;1.60;;;14.40;99.90;;;;;;4992420;28;20046;-84
2021/05/23 12:20:05;;;;;;;7.93;1.50;;;14.60;99.90;;;;;;4990143;28;20049;-84
2021/05/23 12:22:38;;;;;;;4.03;0.80;;;15.10;99.90;;;;;;4991692;28;20242;-84
2021/05/23 12:25:03;;;;;;;12.63;1.40;;;15.30;99.90;;;;;;4990794;28;20375;-84
2021/05/23 12:27:32;;;;;;;6.82;1.17;;;15.70;99.90;;;;;;4992143;28;20037;-83
2021/05/23 12:30:08;;;;;;;7.28;1.40;;;15.80;99.90;;;;;;4990965;28;20411;-84
2021/05/23 12:32:45;;;;;;;3.90;1.30;;;15.30;99.90;;;;;;4992129;28;20022;-85
2021/05/23 12:35:15;;;;;;;6.10;1.17;;;15.50;99.90;;;;;;5004924;28;20060;-84
2021/05/23 12:37:46;;;;;;;7.35;1.42;;;15.70;99.90;;;;;;5007066;28;20029;-85
2021/05/23 12:40:17;;;;;;;8.43;1.50;;;16.00;99.90;;;;;;4991892;28;20027;-87
2021/05/23 12:42:43;;;;;;;7.97;1.75;;;16.60;99.90;;;;;;4989463;28;20088;-87
2021/05/23 12:45:09;;;;;;;4.38;1.70;;;16.30;99.90;;;;;;4990649;28;20042;-86